Iliamna Airport Iliamna US
ICAO: PAIL
IATA:
Category: Medium
Scheduled Services:

Elevation: 192 ft
TransAlt. 18000 ft.

Airport Communications:
ASOS:134.95
ATIS:134.95
ANCHORAGE CNTR:118.8
CTAF:123.6
RDO:123.6
KENAI RDO:121.2
KENAI RDO:122.2

PAIL Zoom In..

Runways:

(A) RW 07 length 5086 ft width 100 ft
---- / hdg 76

(B) RW 17 length 4800 ft width 100 ft
---- / hdg 172

(C) RW 25 length 5086 ft width 100 ft
---- / hdg 256

(D) RW 35 length 4800 ft width 100 ft
---- / hdg 352

Location; PAIL
Day. 24 / Time. 12.53 Zulu
* Altimeter: 29.67
* Temperature: 03° c. 37.4°f.
* Wind from: 320° Speed 05 kn.
Dewpoint: 03° c.
Visibility: 10 Statute Miles.
Clouds: Few 4200 ft.

PAIL 241253Z AUTO 32005KT 10SM FEW042 03/03 A2967 RMK AO2 SLP048 T00280028 TSNO


Wind From 320°
Speed 05 kn.

 
 
jpsmedia.com for Web Design SOUNDCLOUD worldairports.se 2018   terms of use